Nampa, ID

9:03 AM MST on December 09, 2016 (GMT -0700)
Nampa

Weather History for KMAN - October, 2013

Change the Weather History Date:

Tuesday, October 29, 2013

  Actual Average (KBOI) Record (KBOI)
Temperature  
Mean Temperature 43 °F -  
Max Temperature 51 °F 55 °F 77 °F (1968)
Min Temperature 35 °F 34 °F 11 °F (1971)
Degree Days  
Heating Degree Days 22    
Moisture  
Dew Point 37 °F    
Average Humidity 80    
Maximum Humidity 100    
Minimum Humidity 54    
Precipitation  
Precipitation 0.00 in - - ()
Sea Level Pressure  
Sea Level Pressure 29.92 in    
Wind  
Wind Speed 6 mph (NW)    
Max Wind Speed 12 mph    
Max Gust Speed -    
Visibility 10 miles    
Events      
Averages and records for this station are not official NWS values.
T = Trace of Precipitation, MM = Missing Value Source: NWS Daily Summary

Daily Weather History Graph

Daily Weather History Graph

Search for Another Location

Airport or City:

Trip Planner

Search our weather history database for the weather conditions in past years. The results will help you decide how hot, cold, wet, or windy it might be!

Date:

Astronomy

Oct. 29, 2013 Rise Set
Actual Time 8:18 AM MDT 6:40 PM MDT
Civil Twilight 7:48 AM MDT 7:10 PM MDT
Nautical Twilight 7:14 AM MDT 7:43 PM MDT
Astronomical Twilight 6:41 AM MDT 8:17 PM MDT
Moon 3:03 AM MDT (10/29) 4:04 PM MDT (10/29)
Length of Visible Light 11h 21m
Length of Day
10h 22m
Waning Crescent, 24% of the Moon is Illuminated
Oct 29
Waning Crescent
Nov 3
New
Nov 9
First Quarter
Nov 17
Full
Nov 25
Last Quarter

Hourly Weather History & Observations

Time (MDT) Temp. Windchill Dew Point Humidity Pressure Visibility Wind Dir Wind Speed Gust Speed Precip Events Conditions
12:15 AM 41.0 °F 35.2 °F 41.0 °F 100% 29.75 in 10.0 mi ESE 9.2 mph - N/A   Overcast
12:35 AM 41.0 °F 35.8 °F 39.2 °F 93% 29.77 in 10.0 mi SE 8.1 mph - N/A   Overcast
12:55 AM 41.0 °F 36.4 °F 41.0 °F 100% 29.77 in 10.0 mi SSE 6.9 mph - N/A   Mostly Cloudy
1:15 AM 41.0 °F 36.4 °F 39.2 °F 93% 29.78 in 10.0 mi SSE 6.9 mph - N/A   Mostly Cloudy
1:35 AM 41.0 °F 35.8 °F 39.2 °F 93% 29.79 in 10.0 mi SSW 8.1 mph - N/A   Scattered Clouds
1:55 AM 41.0 °F 38.0 °F 39.2 °F 93% 29.80 in 10.0 mi South 4.6 mph - N/A   Mostly Cloudy
2:15 AM 39.2 °F 37.0 °F 39.2 °F 100% 29.80 in 10.0 mi South 3.5 mph - N/A   Partly Cloudy
2:35 AM 39.2 °F 37.0 °F 37.4 °F 93% 29.80 in 10.0 mi ESE 3.5 mph - N/A   Clear
2:55 AM 37.4 °F 33.8 °F 37.4 °F 100% 29.81 in 10.0 mi East 4.6 mph - N/A   Clear
3:15 AM 37.4 °F 34.9 °F 37.4 °F 100% 29.82 in 10.0 mi East 3.5 mph - N/A   Partly Cloudy
3:55 AM 37.4 °F - 37.4 °F 100% 29.82 in 10.0 mi Calm Calm - N/A   Unknown
4:35 AM 37.4 °F - 37.4 °F 100% 29.83 in 10.0 mi Calm Calm - N/A   Scattered Clouds
4:55 AM 37.4 °F - 37.4 °F 100% 29.84 in 10.0 mi Calm Calm - N/A   Mostly Cloudy
5:35 AM 35.6 °F - 35.6 °F 100% 29.85 in 10.0 mi Calm Calm - N/A   Unknown
5:55 AM 35.6 °F - 35.6 °F 100% 29.86 in 10.0 mi Calm Calm - N/A   Unknown
6:35 AM 37.4 °F - 37.4 °F 100% 29.86 in 10.0 mi Calm Calm - N/A   Unknown
6:55 AM 37.4 °F - 37.4 °F 100% 29.87 in 10.0 mi Calm Calm - N/A   Unknown
7:35 AM 37.4 °F - 37.4 °F 100% 29.88 in 10.0 mi Calm Calm - N/A   Unknown
8:15 AM 39.2 °F 34.2 °F 39.2 °F 100% 29.90 in 10.0 mi WNW 6.9 mph - N/A   Overcast
8:35 AM 39.2 °F 35.9 °F 39.2 °F 100% 29.91 in 10.0 mi NW 4.6 mph - N/A   Overcast
8:55 AM 39.2 °F 35.0 °F 39.2 °F 100% 29.92 in 10.0 mi NW 5.8 mph - N/A   Overcast
9:15 AM 41.0 °F 39.0 °F 39.2 °F 93% 29.92 in 10.0 mi NW 3.5 mph - N/A   Overcast
9:35 AM 41.0 °F 38.0 °F 41.0 °F 100% 29.93 in 10.0 mi West 4.6 mph - N/A   Overcast
9:55 AM 41.0 °F 37.1 °F 41.0 °F 100% 29.94 in 10.0 mi WNW 5.8 mph - N/A   Overcast
10:15 AM 41.0 °F 37.1 °F 41.0 °F 100% 29.94 in 10.0 mi West 5.8 mph - N/A   Overcast
10:35 AM 41.0 °F 37.1 °F 39.2 °F 93% 29.95 in 10.0 mi West 5.8 mph - N/A   Overcast
10:55 AM 42.8 °F 38.6 °F 37.4 °F 81% 29.95 in 10.0 mi NW 6.9 mph - N/A   Overcast
11:15 AM 42.8 °F 38.6 °F 35.6 °F 76% 29.96 in 10.0 mi NW 6.9 mph - N/A   Overcast
11:35 AM 44.6 °F 40.7 °F 33.8 °F 66% 29.96 in 10.0 mi NW 6.9 mph - N/A   Overcast
11:55 AM 44.6 °F 40.2 °F 35.6 °F 71% 29.96 in 10.0 mi WNW 8.1 mph - N/A   Overcast
12:15 PM 46.4 °F 41.9 °F 33.8 °F 62% 29.96 in 10.0 mi WNW 9.2 mph - N/A   Mostly Cloudy
12:35 PM 46.4 °F 41.9 °F 35.6 °F 66% 29.96 in 10.0 mi WNW 9.2 mph - N/A   Scattered Clouds
12:55 PM 46.4 °F 42.9 °F 35.6 °F 66% 29.96 in 10.0 mi WNW 6.9 mph - N/A   Scattered Clouds
1:15 PM 46.4 °F 41.1 °F 33.8 °F 62% 29.96 in 10.0 mi WNW 11.5 mph - N/A   Scattered Clouds
1:35 PM 46.4 °F 41.5 °F 33.8 °F 62% 29.96 in 10.0 mi WNW 10.4 mph - N/A   Mostly Cloudy
1:55 PM 46.4 °F 41.9 °F 35.6 °F 66% 29.96 in 10.0 mi WNW 9.2 mph - N/A   Mostly Cloudy
2:15 PM 48.2 °F - 35.6 °F 62% 29.96 in 10.0 mi WNW 4.6 mph - N/A   Scattered Clouds
2:35 PM 50.0 °F - 35.6 °F 58% 29.95 in 10.0 mi West 9.2 mph - N/A   Clear
2:55 PM 50.0 °F - 37.4 °F 62% 29.95 in 10.0 mi NW 8.1 mph - N/A   Clear
3:15 PM 50.0 °F - 35.6 °F 58% 29.95 in 10.0 mi NW 6.9 mph - N/A   Clear
3:35 PM 50.0 °F - 35.6 °F 58% 29.95 in 10.0 mi NW 5.8 mph - N/A   Clear
3:55 PM 50.0 °F - 37.4 °F 62% 29.95 in 10.0 mi WNW 8.1 mph - N/A   Clear
4:15 PM 51.8 °F - 35.6 °F 54% 29.94 in 10.0 mi WNW 9.2 mph - N/A   Clear
4:35 PM 51.8 °F - 37.4 °F 58% 29.94 in 10.0 mi WNW 9.2 mph - N/A   Clear
4:55 PM 51.8 °F - 35.6 °F 54% 29.94 in 10.0 mi WNW 8.1 mph - N/A   Clear
5:15 PM 51.8 °F - 35.6 °F 54% 29.95 in 10.0 mi WNW 8.1 mph - N/A   Clear
5:35 PM 50.0 °F - 35.6 °F 58% 29.95 in 10.0 mi WNW 11.5 mph - N/A   Clear
5:55 PM 50.0 °F - 35.6 °F 58% 29.95 in 10.0 mi WNW 6.9 mph - N/A   Clear
6:15 PM 50.0 °F - 35.6 °F 58% 29.95 in 10.0 mi NW 5.8 mph - N/A   Clear
6:35 PM 48.2 °F - 35.6 °F 62% 29.96 in 10.0 mi NW 4.6 mph - N/A   Clear
6:55 PM 48.2 °F - 35.6 °F 62% 29.96 in 10.0 mi NNW 3.5 mph - N/A   Clear
7:15 PM 46.4 °F - 37.4 °F 71% 29.97 in 10.0 mi Calm Calm - N/A   Clear
7:35 PM 46.4 °F - 37.4 °F 71% 29.98 in 10.0 mi Calm Calm - N/A   Clear
7:55 PM 44.6 °F - 37.4 °F 76% 29.98 in 5.0 mi Calm Calm - N/A   Unknown
8:15 PM 41.0 °F - 37.4 °F 87% 29.98 in 10.0 mi Calm Calm - N/A   Unknown
8:35 PM 44.6 °F 42.2 °F 37.4 °F 76% 29.99 in 10.0 mi NNW 4.6 mph - N/A   Clear
8:55 PM 44.6 °F 42.2 °F 39.2 °F 81% 29.99 in 10.0 mi NW 4.6 mph - N/A   Clear
9:15 PM 44.6 °F 41.4 °F 37.4 °F 76% 30.00 in 10.0 mi NW 5.8 mph - N/A   Clear
9:35 PM 44.6 °F 42.2 °F 37.4 °F 76% 30.00 in 10.0 mi NNW 4.6 mph - N/A   Clear
9:55 PM 42.8 °F 39.3 °F 37.4 °F 81% 30.01 in 10.0 mi NW 5.8 mph - N/A   Clear
10:15 PM 42.8 °F 38.6 °F 37.4 °F 81% 30.02 in 10.0 mi NNW 6.9 mph - N/A   Clear
10:35 PM 41.0 °F 36.4 °F 35.6 °F 81% 30.02 in 10.0 mi NNW 6.9 mph - N/A   Clear
10:55 PM 41.0 °F 36.4 °F 35.6 °F 81% 30.03 in 10.0 mi North 6.9 mph - N/A   Clear
11:15 PM 41.0 °F 37.1 °F 35.6 °F 81% 30.03 in 10.0 mi North 5.8 mph - N/A   Clear
11:35 PM 39.2 °F 34.2 °F 35.6 °F 87% 30.03 in 10.0 mi North 6.9 mph - N/A   Clear
11:55 PM 39.2 °F 35.0 °F 33.8 °F 81% 30.03 in 10.0 mi North 5.8 mph - N/A   Clear